Terminal Aerodrome Forecast
Issued by NWS Quad Cities IA IL

Home | Current Version | Previous Version | Text Only | Print | Product List | Glossary On
Versions: 1 2 3 4 5 6 7 8 9 10 11 12 13 14 15 16 17 18 19 20 21 22 23 24 25 26 27 28 29 30
000
FTUS43 KDVN 251730
TAFMLI
TAF
KMLI 251730Z 2518/2618 16014KT P6SM BKN100
     FM260500 14011KT P6SM VCSH BKN060
     FM260800 15011KT 5SM -SHRA BKN030
     FM261500 24013KT 5SM BR VCSH OVC012=

USA.gov is the U.S. government's official web portal to all federal, state and local government web resources and services.